sensor_id;sensor_type;location;lat;lon;timestamp;temperature;humidity
20291;DHT22;10304;51.074;13.754;2023-11-21T00:00:00;12.60;99.90
20291;DHT22;10304;51.074;13.754;2023-11-21T00:02:28;12.60;99.90
20291;DHT22;10304;51.074;13.754;2023-11-21T00:04:55;12.70;99.90
20291;DHT22;10304;51.074;13.754;2023-11-21T00:07:22;12.70;99.90
20291;DHT22;10304;51.074;13.754;2023-11-21T00:09:52;12.70;99.90
20291;DHT22;10304;51.074;13.754;2023-11-21T00:12:19;12.60;99.90
20291;DHT22;10304;51.074;13.754;2023-11-21T00:14:52;12.70;99.90
20291;DHT22;10304;51.074;13.754;2023-11-21T00:17:25;12.70;99.90
20291;DHT22;10304;51.074;13.754;2023-11-21T00:19:52;12.70;99.90
20291;DHT22;10304;51.074;13.754;2023-11-21T00:22:20;12.70;99.90
20291;DHT22;10304;51.074;13.754;2023-11-21T00:24:49;12.70;99.90
20291;DHT22;10304;51.074;13.754;2023-11-21T00:27:16;12.70;99.90
20291;DHT22;10304;51.074;13.754;2023-11-21T00:29:43;12.70;99.90
20291;DHT22;10304;51.074;13.754;2023-11-21T00:32:10;12.60;99.90
20291;DHT22;10304;51.074;13.754;2023-11-21T00:34:37;12.70;99.90
20291;DHT22;10304;51.074;13.754;2023-11-21T00:37:05;12.60;99.90
20291;DHT22;10304;51.074;13.754;2023-11-21T00:39:32;12.60;99.90
20291;DHT22;10304;51.074;13.754;2023-11-21T00:41:59;12.60;99.90
20291;DHT22;10304;51.074;13.754;2023-11-21T00:44:26;12.60;99.90
20291;DHT22;10304;51.074;13.754;2023-11-21T00:46:53;12.60;99.90
20291;DHT22;10304;51.074;13.754;2023-11-21T00:49:21;12.60;99.90
20291;DHT22;10304;51.074;13.754;2023-11-21T00:51:48;12.50;99.90
20291;DHT22;10304;51.074;13.754;2023-11-21T00:54:16;12.50;99.90
20291;DHT22;10304;51.074;13.754;2023-11-21T00:56:43;12.50;99.90
20291;DHT22;10304;51.074;13.754;2023-11-21T00:59:10;12.50;1.00
20291;DHT22;10304;51.074;13.754;2023-11-21T01:01:37;12.50;1.00
20291;DHT22;10304;51.074;13.754;2023-11-21T01:04:04;12.50;1.00
20291;DHT22;10304;51.074;13.754;2023-11-21T01:06:33;12.50;1.00
20291;DHT22;10304;51.074;13.754;2023-11-21T01:09:00;12.50;1.00
20291;DHT22;10304;51.074;13.754;2023-11-21T01:11:27;12.50;1.00
20291;DHT22;10304;51.074;13.754;2023-11-21T01:13:53;12.50;1.00
20291;DHT22;10304;51.074;13.754;2023-11-21T01:16:20;12.60;1.00
20291;DHT22;10304;51.074;13.754;2023-11-21T01:18:47;12.60;1.00
20291;DHT22;10304;51.074;13.754;2023-11-21T01:21:14;12.50;1.00
20291;DHT22;10304;51.074;13.754;2023-11-21T01:23:41;12.50;1.00
20291;DHT22;10304;51.074;13.754;2023-11-21T01:26:08;12.50;1.00
20291;DHT22;10304;51.074;13.754;2023-11-21T01:28:35;12.50;1.00
20291;DHT22;10304;51.074;13.754;2023-11-21T01:31:02;12.60;1.00
20291;DHT22;10304;51.074;13.754;2023-11-21T01:33:29;12.50;1.00
20291;DHT22;10304;51.074;13.754;2023-11-21T01:35:56;12.60;1.00
20291;DHT22;10304;51.074;13.754;2023-11-21T01:38:23;12.60;1.00
20291;DHT22;10304;51.074;13.754;2023-11-21T01:40:50;12.50;1.00
20291;DHT22;10304;51.074;13.754;2023-11-21T01:43:17;12.60;1.00
20291;DHT22;10304;51.074;13.754;2023-11-21T01:45:44;12.60;1.00
20291;DHT22;10304;51.074;13.754;2023-11-21T01:48:14;12.60;1.00
20291;DHT22;10304;51.074;13.754;2023-11-21T01:50:43;12.60;1.00
20291;DHT22;10304;51.074;13.754;2023-11-21T01:53:12;12.60;1.00
20291;DHT22;10304;51.074;13.754;2023-11-21T01:55:45;12.60;1.00
20291;DHT22;10304;51.074;13.754;2023-11-21T01:58:12;12.70;1.00
20291;DHT22;10304;51.074;13.754;2023-11-21T02:00:39;12.70;1.00
20291;DHT22;10304;51.074;13.754;2023-11-21T02:03:07;12.70;99.90
20291;DHT22;10304;51.074;13.754;2023-11-21T02:05:34;12.70;1.00
20291;DHT22;10304;51.074;13.754;2023-11-21T02:08:01;12.70;1.00
20291;DHT22;10304;51.074;13.754;2023-11-21T02:10:30;12.60;1.00
20291;DHT22;10304;51.074;13.754;2023-11-21T02:12:58;12.60;1.00
20291;DHT22;10304;51.074;13.754;2023-11-21T02:15:27;12.60;1.00
20291;DHT22;10304;51.074;13.754;2023-11-21T02:17:56;12.70;1.00
20291;DHT22;10304;51.074;13.754;2023-11-21T02:20:25;12.70;1.00
20291;DHT22;10304;51.074;13.754;2023-11-21T02:22:54;12.70;1.00
20291;DHT22;10304;51.074;13.754;2023-11-21T02:25:30;12.70;1.00
20291;DHT22;10304;51.074;13.754;2023-11-21T02:27:59;12.70;1.00
20291;DHT22;10304;51.074;13.754;2023-11-21T02:30:28;12.70;1.00
20291;DHT22;10304;51.074;13.754;2023-11-21T02:32:55;12.70;1.00
20291;DHT22;10304;51.074;13.754;2023-11-21T02:35:26;12.70;1.00
20291;DHT22;10304;51.074;13.754;2023-11-21T02:37:54;12.80;99.90
20291;DHT22;10304;51.074;13.754;2023-11-21T02:40:21;12.70;99.90
20291;DHT22;10304;51.074;13.754;2023-11-21T02:42:49;12.70;99.90
20291;DHT22;10304;51.074;13.754;2023-11-21T02:45:20;12.70;99.90
20291;DHT22;10304;51.074;13.754;2023-11-21T02:47:48;12.60;99.90
20291;DHT22;10304;51.074;13.754;2023-11-21T02:50:16;12.60;99.90
20291;DHT22;10304;51.074;13.754;2023-11-21T02:52:47;12.60;99.90
20291;DHT22;10304;51.074;13.754;2023-11-21T02:55:14;12.60;99.90
20291;DHT22;10304;51.074;13.754;2023-11-21T02:57:41;12.60;99.90
20291;DHT22;10304;51.074;13.754;2023-11-21T03:00:09;12.50;99.90
20291;DHT22;10304;51.074;13.754;2023-11-21T03:02:41;12.50;99.90
20291;DHT22;10304;51.074;13.754;2023-11-21T03:05:08;12.50;99.90
20291;DHT22;10304;51.074;13.754;2023-11-21T03:07:38;12.50;99.90
20291;DHT22;10304;51.074;13.754;2023-11-21T03:10:07;12.40;99.90
20291;DHT22;10304;51.074;13.754;2023-11-21T03:12:37;12.40;99.90
20291;DHT22;10304;51.074;13.754;2023-11-21T03:15:06;12.30;99.90
20291;DHT22;10304;51.074;13.754;2023-11-21T03:17:33;12.30;99.90
20291;DHT22;10304;51.074;13.754;2023-11-21T03:20:05;12.30;1.00
20291;DHT22;10304;51.074;13.754;2023-11-21T03:22:32;12.20;1.00
20291;DHT22;10304;51.074;13.754;2023-11-21T03:25:00;12.10;1.00
20291;DHT22;10304;51.074;13.754;2023-11-21T03:27:27;12.10;1.00
20291;DHT22;10304;51.074;13.754;2023-11-21T03:29:54;12.00;1.00
20291;DHT22;10304;51.074;13.754;2023-11-21T03:32:21;12.00;1.00
20291;DHT22;10304;51.074;13.754;2023-11-21T03:34:58;12.00;1.00
20291;DHT22;10304;51.074;13.754;2023-11-21T03:37:26;11.90;72.70
20291;DHT22;10304;51.074;13.754;2023-11-21T03:39:56;11.90;99.90
20291;DHT22;10304;51.074;13.754;2023-11-21T03:42:24;12.00;99.90
20291;DHT22;10304;51.074;13.754;2023-11-21T03:44:53;11.90;71.70
20291;DHT22;10304;51.074;13.754;2023-11-21T03:47:21;11.90;34.50
20291;DHT22;10304;51.074;13.754;2023-11-21T03:49:52;12.00;1.00
20291;DHT22;10304;51.074;13.754;2023-11-21T03:52:19;12.00;23.00
20291;DHT22;10304;51.074;13.754;2023-11-21T03:54:46;12.00;1.00
20291;DHT22;10304;51.074;13.754;2023-11-21T03:57:13;12.00;1.00
20291;DHT22;10304;51.074;13.754;2023-11-21T04:02:47;12.00;1.30
20291;DHT22;10304;51.074;13.754;2023-11-21T04:05:17;12.00;1.00
20291;DHT22;10304;51.074;13.754;2023-11-21T04:07:56;12.00;1.00
20291;DHT22;10304;51.074;13.754;2023-11-21T04:10:37;12.00;1.00
20291;DHT22;10304;51.074;13.754;2023-11-21T04:13:20;12.00;1.00
20291;DHT22;10304;51.074;13.754;2023-11-21T04:15:47;12.00;1.00
20291;DHT22;10304;51.074;13.754;2023-11-21T04:18:14;12.00;1.00
20291;DHT22;10304;51.074;13.754;2023-11-21T04:20:43;12.00;1.00
20291;DHT22;10304;51.074;13.754;2023-11-21T04:23:10;12.00;1.00
20291;DHT22;10304;51.074;13.754;2023-11-21T04:25:40;12.00;35.80
20291;DHT22;10304;51.074;13.754;2023-11-21T04:28:07;12.00;1.00
20291;DHT22;10304;51.074;13.754;2023-11-21T04:30:34;12.00;1.00
20291;DHT22;10304;51.074;13.754;2023-11-21T04:33:02;12.00;1.00
20291;DHT22;10304;51.074;13.754;2023-11-21T04:35:29;12.00;1.00
20291;DHT22;10304;51.074;13.754;2023-11-21T04:37:56;12.00;1.00
20291;DHT22;10304;51.074;13.754;2023-11-21T04:40:25;12.00;1.00
20291;DHT22;10304;51.074;13.754;2023-11-21T04:42:54;12.00;1.00
20291;DHT22;10304;51.074;13.754;2023-11-21T04:45:21;12.00;1.00
20291;DHT22;10304;51.074;13.754;2023-11-21T04:47:48;11.90;1.00
20291;DHT22;10304;51.074;13.754;2023-11-21T04:50:15;12.00;1.00
20291;DHT22;10304;51.074;13.754;2023-11-21T04:52:42;12.00;1.00
20291;DHT22;10304;51.074;13.754;2023-11-21T04:55:09;12.00;1.00
20291;DHT22;10304;51.074;13.754;2023-11-21T04:57:37;12.00;1.00
20291;DHT22;10304;51.074;13.754;2023-11-21T05:00:05;12.00;1.00
20291;DHT22;10304;51.074;13.754;2023-11-21T05:02:33;11.90;1.00
20291;DHT22;10304;51.074;13.754;2023-11-21T05:05:03;11.90;1.00
20291;DHT22;10304;51.074;13.754;2023-11-21T05:07:33;12.00;1.00
20291;DHT22;10304;51.074;13.754;2023-11-21T05:10:05;12.00;1.00
20291;DHT22;10304;51.074;13.754;2023-11-21T05:12:38;12.00;1.00
20291;DHT22;10304;51.074;13.754;2023-11-21T05:15:05;12.00;1.00
20291;DHT22;10304;51.074;13.754;2023-11-21T05:17:39;12.00;1.00
20291;DHT22;10304;51.074;13.754;2023-11-21T05:20:12;12.00;1.00
20291;DHT22;10304;51.074;13.754;2023-11-21T05:22:40;12.00;1.00
20291;DHT22;10304;51.074;13.754;2023-11-21T05:25:09;12.00;1.00
20291;DHT22;10304;51.074;13.754;2023-11-21T05:27:38;12.10;1.00
20291;DHT22;10304;51.074;13.754;2023-11-21T05:30:06;12.00;1.00
20291;DHT22;10304;51.074;13.754;2023-11-21T05:32:33;12.10;1.00
20291;DHT22;10304;51.074;13.754;2023-11-21T05:35:01;12.00;1.00
20291;DHT22;10304;51.074;13.754;2023-11-21T05:37:28;12.10;1.00
20291;DHT22;10304;51.074;13.754;2023-11-21T05:39:56;12.10;1.00
20291;DHT22;10304;51.074;13.754;2023-11-21T05:42:32;12.20;1.00
20291;DHT22;10304;51.074;13.754;2023-11-21T05:44:59;12.20;1.00
20291;DHT22;10304;51.074;13.754;2023-11-21T05:47:44;12.20;1.00
20291;DHT22;10304;51.074;13.754;2023-11-21T05:50:15;12.20;1.00
20291;DHT22;10304;51.074;13.754;2023-11-21T05:52:44;12.20;1.00
20291;DHT22;10304;51.074;13.754;2023-11-21T05:55:12;12.20;1.00
20291;DHT22;10304;51.074;13.754;2023-11-21T05:57:41;12.20;1.00
20291;DHT22;10304;51.074;13.754;2023-11-21T06:00:12;12.20;1.00
20291;DHT22;10304;51.074;13.754;2023-11-21T06:02:42;12.20;1.00
20291;DHT22;10304;51.074;13.754;2023-11-21T06:05:09;12.20;1.00
20291;DHT22;10304;51.074;13.754;2023-11-21T06:07:37;12.20;1.00
20291;DHT22;10304;51.074;13.754;2023-11-21T06:10:06;12.20;1.00
20291;DHT22;10304;51.074;13.754;2023-11-21T06:12:36;12.10;1.00
20291;DHT22;10304;51.074;13.754;2023-11-21T06:15:04;12.10;1.00
20291;DHT22;10304;51.074;13.754;2023-11-21T06:17:32;12.10;1.00
20291;DHT22;10304;51.074;13.754;2023-11-21T06:19:59;12.10;1.00
20291;DHT22;10304;51.074;13.754;2023-11-21T06:22:27;12.00;1.00
20291;DHT22;10304;51.074;13.754;2023-11-21T06:24:57;11.90;1.00
20291;DHT22;10304;51.074;13.754;2023-11-21T06:27:24;12.00;1.00
20291;DHT22;10304;51.074;13.754;2023-11-21T06:29:51;11.90;1.00
20291;DHT22;10304;51.074;13.754;2023-11-21T06:32:18;11.90;1.00
20291;DHT22;10304;51.074;13.754;2023-11-21T06:34:48;11.90;1.00
20291;DHT22;10304;51.074;13.754;2023-11-21T06:37:17;11.90;1.00
20291;DHT22;10304;51.074;13.754;2023-11-21T06:39:43;11.90;99.90
20291;DHT22;10304;51.074;13.754;2023-11-21T06:42:11;11.90;99.90
20291;DHT22;10304;51.074;13.754;2023-11-21T06:44:37;12.00;99.90
20291;DHT22;10304;51.074;13.754;2023-11-21T06:47:05;12.00;94.20
20291;DHT22;10304;51.074;13.754;2023-11-21T06:49:32;12.00;1.00
20291;DHT22;10304;51.074;13.754;2023-11-21T06:51:59;12.00;1.00
20291;DHT22;10304;51.074;13.754;2023-11-21T06:54:26;12.00;21.90
20291;DHT22;10304;51.074;13.754;2023-11-21T06:56:53;11.90;41.60
20291;DHT22;10304;51.074;13.754;2023-11-21T06:59:20;11.90;24.40
20291;DHT22;10304;51.074;13.754;2023-11-21T07:01:47;11.90;76.20
20291;DHT22;10304;51.074;13.754;2023-11-21T07:04:14;12.00;81.40
20291;DHT22;10304;51.074;13.754;2023-11-21T07:06:41;12.00;99.90
20291;DHT22;10304;51.074;13.754;2023-11-21T07:09:10;11.90;99.90
20291;DHT22;10304;51.074;13.754;2023-11-21T07:11:38;11.90;99.90
20291;DHT22;10304;51.074;13.754;2023-11-21T07:14:09;11.90;99.90
20291;DHT22;10304;51.074;13.754;2023-11-21T07:16:37;11.90;99.90
20291;DHT22;10304;51.074;13.754;2023-11-21T07:19:04;11.90;99.90
20291;DHT22;10304;51.074;13.754;2023-11-21T07:21:36;11.90;99.90
20291;DHT22;10304;51.074;13.754;2023-11-21T07:24:03;11.90;99.90
20291;DHT22;10304;51.074;13.754;2023-11-21T07:26:30;11.90;99.90
20291;DHT22;10304;51.074;13.754;2023-11-21T07:28:57;11.90;99.90
20291;DHT22;10304;51.074;13.754;2023-11-21T07:31:24;12.00;99.90
20291;DHT22;10304;51.074;13.754;2023-11-21T07:33:52;12.00;99.90
20291;DHT22;10304;51.074;13.754;2023-11-21T07:36:20;11.90;99.90
20291;DHT22;10304;51.074;13.754;2023-11-21T07:38:50;12.00;99.90
20291;DHT22;10304;51.074;13.754;2023-11-21T07:41:18;12.00;1.00
20291;DHT22;10304;51.074;13.754;2023-11-21T07:43:57;12.00;1.00
20291;DHT22;10304;51.074;13.754;2023-11-21T07:46:25;12.00;1.00
20291;DHT22;10304;51.074;13.754;2023-11-21T07:48:53;12.00;1.00
20291;DHT22;10304;51.074;13.754;2023-11-21T07:51:20;12.00;1.00
20291;DHT22;10304;51.074;13.754;2023-11-21T07:53:47;12.00;99.90
20291;DHT22;10304;51.074;13.754;2023-11-21T07:56:14;12.00;99.90
20291;DHT22;10304;51.074;13.754;2023-11-21T07:58:40;12.00;99.90
20291;DHT22;10304;51.074;13.754;2023-11-21T08:01:08;12.00;99.90
20291;DHT22;10304;51.074;13.754;2023-11-21T08:03:35;12.00;99.90
20291;DHT22;10304;51.074;13.754;2023-11-21T08:06:02;12.10;99.90
20291;DHT22;10304;51.074;13.754;2023-11-21T08:08:30;12.10;99.90
20291;DHT22;10304;51.074;13.754;2023-11-21T08:10:57;12.10;99.90
20291;DHT22;10304;51.074;13.754;2023-11-21T08:13:25;12.00;99.90
20291;DHT22;10304;51.074;13.754;2023-11-21T08:15:54;12.00;99.90
20291;DHT22;10304;51.074;13.754;2023-11-21T08:18:23;12.00;99.90
20291;DHT22;10304;51.074;13.754;2023-11-21T08:20:49;11.90;1.00
20291;DHT22;10304;51.074;13.754;2023-11-21T08:23:17;11.90;1.00
20291;DHT22;10304;51.074;13.754;2023-11-21T08:25:44;11.80;92.60
20291;DHT22;10304;51.074;13.754;2023-11-21T08:28:12;11.80;1.00
20291;DHT22;10304;51.074;13.754;2023-11-21T08:30:41;11.80;1.00
20291;DHT22;10304;51.074;13.754;2023-11-21T08:33:08;11.70;99.90
20291;DHT22;10304;51.074;13.754;2023-11-21T08:35:35;11.70;1.00
20291;DHT22;10304;51.074;13.754;2023-11-21T08:38:05;11.60;1.00
20291;DHT22;10304;51.074;13.754;2023-11-21T08:40:33;11.60;99.90
20291;DHT22;10304;51.074;13.754;2023-11-21T08:43:01;11.60;1.00
20291;DHT22;10304;51.074;13.754;2023-11-21T08:45:31;11.60;1.00
20291;DHT22;10304;51.074;13.754;2023-11-21T08:48:01;11.60;1.00
20291;DHT22;10304;51.074;13.754;2023-11-21T08:50:29;11.50;1.00
20291;DHT22;10304;51.074;13.754;2023-11-21T08:52:56;11.50;1.00
20291;DHT22;10304;51.074;13.754;2023-11-21T08:55:23;11.50;99.90
20291;DHT22;10304;51.074;13.754;2023-11-21T08:57:50;11.40;1.00
20291;DHT22;10304;51.074;13.754;2023-11-21T09:00:18;11.40;99.90
20291;DHT22;10304;51.074;13.754;2023-11-21T09:02:46;11.40;1.00
20291;DHT22;10304;51.074;13.754;2023-11-21T09:05:14;11.40;1.00
20291;DHT22;10304;51.074;13.754;2023-11-21T09:07:42;11.30;1.00
20291;DHT22;10304;51.074;13.754;2023-11-21T09:10:10;11.30;1.00
20291;DHT22;10304;51.074;13.754;2023-11-21T09:12:38;11.30;1.00
20291;DHT22;10304;51.074;13.754;2023-11-21T09:15:06;11.30;1.00
20291;DHT22;10304;51.074;13.754;2023-11-21T09:17:37;11.20;1.00
20291;DHT22;10304;51.074;13.754;2023-11-21T09:20:05;11.20;1.00
20291;DHT22;10304;51.074;13.754;2023-11-21T09:22:33;11.30;1.00
20291;DHT22;10304;51.074;13.754;2023-11-21T09:25:03;11.30;1.00
20291;DHT22;10304;51.074;13.754;2023-11-21T09:27:34;11.30;1.00
20291;DHT22;10304;51.074;13.754;2023-11-21T09:30:10;11.30;1.00
20291;DHT22;10304;51.074;13.754;2023-11-21T09:32:44;11.30;1.00
20291;DHT22;10304;51.074;13.754;2023-11-21T09:35:16;11.40;1.00
20291;DHT22;10304;51.074;13.754;2023-11-21T09:37:56;11.40;1.00
20291;DHT22;10304;51.074;13.754;2023-11-21T09:40:23;11.40;1.00
20291;DHT22;10304;51.074;13.754;2023-11-21T09:42:56;11.40;1.00
20291;DHT22;10304;51.074;13.754;2023-11-21T09:45:32;11.50;1.00
20291;DHT22;10304;51.074;13.754;2023-11-21T09:48:09;11.50;99.90
20291;DHT22;10304;51.074;13.754;2023-11-21T09:51:46;11.60;1.00
20291;DHT22;10304;51.074;13.754;2023-11-21T09:54:08;11.60;99.90
20291;DHT22;10304;51.074;13.754;2023-11-21T09:56:47;11.50;1.00
20291;DHT22;10304;51.074;13.754;2023-11-21T09:59:20;11.40;1.00
20291;DHT22;10304;51.074;13.754;2023-11-21T10:02:02;11.40;1.00
20291;DHT22;10304;51.074;13.754;2023-11-21T10:04:32;11.40;16.40
20291;DHT22;10304;51.074;13.754;2023-11-21T10:07:00;11.30;1.00
20291;DHT22;10304;51.074;13.754;2023-11-21T10:09:28;11.30;1.00
20291;DHT22;10304;51.074;13.754;2023-11-21T10:11:55;11.20;99.90
20291;DHT22;10304;51.074;13.754;2023-11-21T10:14:24;11.20;1.00
20291;DHT22;10304;51.074;13.754;2023-11-21T10:16:53;11.10;1.00
20291;DHT22;10304;51.074;13.754;2023-11-21T10:19:25;11.00;1.00
20291;DHT22;10304;51.074;13.754;2023-11-21T10:21:54;11.00;1.00
20291;DHT22;10304;51.074;13.754;2023-11-21T10:24:21;10.90;1.00
20291;DHT22;10304;51.074;13.754;2023-11-21T10:26:49;10.90;1.00
20291;DHT22;10304;51.074;13.754;2023-11-21T10:29:20;10.90;1.00
20291;DHT22;10304;51.074;13.754;2023-11-21T10:31:50;10.80;99.90
20291;DHT22;10304;51.074;13.754;2023-11-21T10:34:19;10.80;1.00
20291;DHT22;10304;51.074;13.754;2023-11-21T10:36:47;10.80;1.00
20291;DHT22;10304;51.074;13.754;2023-11-21T10:39:18;10.80;1.00
20291;DHT22;10304;51.074;13.754;2023-11-21T10:41:47;10.70;1.00
20291;DHT22;10304;51.074;13.754;2023-11-21T10:44:18;10.60;1.00
20291;DHT22;10304;51.074;13.754;2023-11-21T10:46:50;10.60;1.00
20291;DHT22;10304;51.074;13.754;2023-11-21T10:49:24;10.60;1.00
20291;DHT22;10304;51.074;13.754;2023-11-21T10:51:53;10.50;18.80
20291;DHT22;10304;51.074;13.754;2023-11-21T10:54:21;10.50;1.00
20291;DHT22;10304;51.074;13.754;2023-11-21T10:56:59;10.50;1.00
20291;DHT22;10304;51.074;13.754;2023-11-21T10:59:31;10.50;1.00
20291;DHT22;10304;51.074;13.754;2023-11-21T11:02:01;10.40;1.00
20291;DHT22;10304;51.074;13.754;2023-11-21T11:04:32;10.40;1.00
20291;DHT22;10304;51.074;13.754;2023-11-21T11:07:02;10.50;40.50
20291;DHT22;10304;51.074;13.754;2023-11-21T11:09:32;10.40;40.80
20291;DHT22;10304;51.074;13.754;2023-11-21T11:12:02;10.50;90.40
20291;DHT22;10304;51.074;13.754;2023-11-21T11:14:32;10.40;1.00
20291;DHT22;10304;51.074;13.754;2023-11-21T11:16:59;10.40;1.00
20291;DHT22;10304;51.074;13.754;2023-11-21T11:19:28;10.30;1.00
20291;DHT22;10304;51.074;13.754;2023-11-21T11:22:29;10.40;1.00
20291;DHT22;10304;51.074;13.754;2023-11-21T11:28:01;10.30;99.90
20291;DHT22;10304;51.074;13.754;2023-11-21T11:33:55;10.20;99.90
20291;DHT22;10304;51.074;13.754;2023-11-21T11:36:37;10.20;99.90
20291;DHT22;10304;51.074;13.754;2023-11-21T11:41:57;10.10;99.90
20291;DHT22;10304;51.074;13.754;2023-11-21T11:47:15;10.10;1.00
20291;DHT22;10304;51.074;13.754;2023-11-21T11:55:03;10.00;1.00
20291;DHT22;10304;51.074;13.754;2023-11-21T11:57:31;10.00;1.00
20291;DHT22;10304;51.074;13.754;2023-11-21T12:02:51;9.90;1.00
20291;DHT22;10304;51.074;13.754;2023-11-21T12:05:22;9.90;1.00
20291;DHT22;10304;51.074;13.754;2023-11-21T12:07:52;9.90;1.00
20291;DHT22;10304;51.074;13.754;2023-11-21T12:10:22;9.90;1.00
20291;DHT22;10304;51.074;13.754;2023-11-21T12:12:56;9.90;1.00
20291;DHT22;10304;51.074;13.754;2023-11-21T12:15:25;9.90;1.00
20291;DHT22;10304;51.074;13.754;2023-11-21T12:17:52;9.90;1.00
20291;DHT22;10304;51.074;13.754;2023-11-21T12:20:22;9.80;1.00
20291;DHT22;10304;51.074;13.754;2023-11-21T12:22:51;9.80;1.00
20291;DHT22;10304;51.074;13.754;2023-11-21T12:25:23;9.80;1.00
20291;DHT22;10304;51.074;13.754;2023-11-21T12:27:52;9.70;1.00
20291;DHT22;10304;51.074;13.754;2023-11-21T12:30:24;9.70;1.00
20291;DHT22;10304;51.074;13.754;2023-11-21T12:32:55;9.70;1.00
20291;DHT22;10304;51.074;13.754;2023-11-21T12:35:25;9.70;1.00
20291;DHT22;10304;51.074;13.754;2023-11-21T12:37:55;9.70;1.00
20291;DHT22;10304;51.074;13.754;2023-11-21T12:40:24;9.60;1.00
20291;DHT22;10304;51.074;13.754;2023-11-21T12:42:56;9.60;1.00
20291;DHT22;10304;51.074;13.754;2023-11-21T12:45:25;9.60;1.00
20291;DHT22;10304;51.074;13.754;2023-11-21T12:48:01;9.50;99.90
20291;DHT22;10304;51.074;13.754;2023-11-21T12:50:38;9.60;99.90
20291;DHT22;10304;51.074;13.754;2023-11-21T12:53:07;9.60;99.90
20291;DHT22;10304;51.074;13.754;2023-11-21T12:55:36;9.50;99.90
20291;DHT22;10304;51.074;13.754;2023-11-21T12:58:08;9.60;99.90
20291;DHT22;10304;51.074;13.754;2023-11-21T13:00:39;9.60;99.90
20291;DHT22;10304;51.074;13.754;2023-11-21T13:03:11;9.50;99.90
20291;DHT22;10304;51.074;13.754;2023-11-21T13:05:44;9.50;99.90
20291;DHT22;10304;51.074;13.754;2023-11-21T13:08:15;9.60;41.30
20291;DHT22;10304;51.074;13.754;2023-11-21T13:10:49;9.50;1.00
20291;DHT22;10304;51.074;13.754;2023-11-21T13:13:17;9.50;1.00
20291;DHT22;10304;51.074;13.754;2023-11-21T13:15:52;9.50;16.00
20291;DHT22;10304;51.074;13.754;2023-11-21T13:18:19;9.40;99.90
20291;DHT22;10304;51.074;13.754;2023-11-21T13:20:49;9.40;99.90
20291;DHT22;10304;51.074;13.754;2023-11-21T13:23:17;9.30;1.00
20291;DHT22;10304;51.074;13.754;2023-11-21T13:25:45;9.30;1.00
20291;DHT22;10304;51.074;13.754;2023-11-21T13:28:27;9.30;1.00
20291;DHT22;10304;51.074;13.754;2023-11-21T13:31:03;9.30;56.80
20291;DHT22;10304;51.074;13.754;2023-11-21T13:33:38;9.20;99.90
20291;DHT22;10304;51.074;13.754;2023-11-21T13:36:08;9.20;1.00
20291;DHT22;10304;51.074;13.754;2023-11-21T13:38:38;9.20;1.00
20291;DHT22;10304;51.074;13.754;2023-11-21T13:41:10;9.20;1.00
20291;DHT22;10304;51.074;13.754;2023-11-21T13:43:39;9.20;1.00
20291;DHT22;10304;51.074;13.754;2023-11-21T13:46:18;9.20;1.00
20291;DHT22;10304;51.074;13.754;2023-11-21T13:48:50;9.10;99.90
20291;DHT22;10304;51.074;13.754;2023-11-21T13:51:24;9.10;99.90
20291;DHT22;10304;51.074;13.754;2023-11-21T13:54:04;9.10;99.90
20291;DHT22;10304;51.074;13.754;2023-11-21T13:56:37;9.10;99.90
20291;DHT22;10304;51.074;13.754;2023-11-21T13:59:07;9.00;99.90
20291;DHT22;10304;51.074;13.754;2023-11-21T14:01:43;9.00;99.90
20291;DHT22;10304;51.074;13.754;2023-11-21T14:04:25;9.00;99.90
20291;DHT22;10304;51.074;13.754;2023-11-21T14:07:24;8.90;99.90
20291;DHT22;10304;51.074;13.754;2023-11-21T14:10:03;8.90;1.00
20291;DHT22;10304;51.074;13.754;2023-11-21T14:12:35;8.90;1.00
20291;DHT22;10304;51.074;13.754;2023-11-21T14:15:06;8.90;1.00
20291;DHT22;10304;51.074;13.754;2023-11-21T14:17:39;8.90;1.00
20291;DHT22;10304;51.074;13.754;2023-11-21T14:20:08;8.90;1.00
20291;DHT22;10304;51.074;13.754;2023-11-21T14:22:44;8.80;1.00
20291;DHT22;10304;51.074;13.754;2023-11-21T14:25:15;8.80;1.00
20291;DHT22;10304;51.074;13.754;2023-11-21T14:27:43;8.80;1.00
20291;DHT22;10304;51.074;13.754;2023-11-21T14:30:10;8.70;1.00
20291;DHT22;10304;51.074;13.754;2023-11-21T14:32:40;8.70;77.10
20291;DHT22;10304;51.074;13.754;2023-11-21T14:35:09;8.60;99.90
20291;DHT22;10304;51.074;13.754;2023-11-21T14:37:36;8.60;99.90
20291;DHT22;10304;51.074;13.754;2023-11-21T14:40:04;8.60;1.00
20291;DHT22;10304;51.074;13.754;2023-11-21T14:42:34;8.60;1.00
20291;DHT22;10304;51.074;13.754;2023-11-21T14:45:04;8.50;99.90
20291;DHT22;10304;51.074;13.754;2023-11-21T14:47:34;8.50;99.90
20291;DHT22;10304;51.074;13.754;2023-11-21T14:50:01;8.40;1.00
20291;DHT22;10304;51.074;13.754;2023-11-21T14:52:48;8.40;1.00
20291;DHT22;10304;51.074;13.754;2023-11-21T14:55:26;8.30;1.00
20291;DHT22;10304;51.074;13.754;2023-11-21T14:57:59;8.30;1.00
20291;DHT22;10304;51.074;13.754;2023-11-21T15:00:31;8.30;99.90
20291;DHT22;10304;51.074;13.754;2023-11-21T15:03:02;8.20;3.40
20291;DHT22;10304;51.074;13.754;2023-11-21T15:05:30;8.20;23.00
20291;DHT22;10304;51.074;13.754;2023-11-21T15:07:57;8.10;1.00
20291;DHT22;10304;51.074;13.754;2023-11-21T15:10:38;8.10;99.90
20291;DHT22;10304;51.074;13.754;2023-11-21T15:13:13;8.10;99.90
20291;DHT22;10304;51.074;13.754;2023-11-21T15:15:42;8.10;99.90
20291;DHT22;10304;51.074;13.754;2023-11-21T15:18:09;8.00;99.90
20291;DHT22;10304;51.074;13.754;2023-11-21T15:20:42;8.00;99.90
20291;DHT22;10304;51.074;13.754;2023-11-21T15:23:14;8.00;99.90
20291;DHT22;10304;51.074;13.754;2023-11-21T15:25:41;8.00;99.90
20291;DHT22;10304;51.074;13.754;2023-11-21T15:28:08;8.00;99.90
20291;DHT22;10304;51.074;13.754;2023-11-21T15:30:35;8.00;1.00
20291;DHT22;10304;51.074;13.754;2023-11-21T15:33:02;8.10;99.90
20291;DHT22;10304;51.074;13.754;2023-11-21T15:35:30;8.00;99.90
20291;DHT22;10304;51.074;13.754;2023-11-21T15:37:59;8.00;1.00
20291;DHT22;10304;51.074;13.754;2023-11-21T15:40:27;8.00;1.00
20291;DHT22;10304;51.074;13.754;2023-11-21T15:42:54;8.00;1.00
20291;DHT22;10304;51.074;13.754;2023-11-21T15:45:21;8.00;1.00
20291;DHT22;10304;51.074;13.754;2023-11-21T15:47:51;8.00;1.00
20291;DHT22;10304;51.074;13.754;2023-11-21T15:50:20;8.00;1.00
20291;DHT22;10304;51.074;13.754;2023-11-21T15:52:47;8.00;1.00
20291;DHT22;10304;51.074;13.754;2023-11-21T15:55:26;7.90;1.00
20291;DHT22;10304;51.074;13.754;2023-11-21T15:57:54;7.90;1.00
20291;DHT22;10304;51.074;13.754;2023-11-21T16:00:21;7.90;1.00
20291;DHT22;10304;51.074;13.754;2023-11-21T16:02:50;7.90;99.90
20291;DHT22;10304;51.074;13.754;2023-11-21T16:05:17;7.90;99.90
20291;DHT22;10304;51.074;13.754;2023-11-21T16:07:45;7.90;1.00